Time;durP1;ratioP1;P1;durP2;ratioP2;P2;SDS_P1;SDS_P2;PMS_P1;PMS_P2;Temp;Humidity;BMP_temperature;BMP_pressure;BME280_temperature;BME280_humidity;BME280_pressure;Samples;Min_cycle;Max_cycle;Signal;HPM_P1;HPM_P2
2022/07/15 00:01:54;;;;;;;5.50;1.92;;;;;;;18.14;53.42;96508.72;5038854;28;20036;-81
2022/07/15 00:04:20;;;;;;;5.50;1.50;;;;;;;18.16;53.07;96511.16;5063220;28;20043;-79
2022/07/15 00:06:46;;;;;;;5.50;1.95;;;;;;;18.21;53.08;96511.41;5023760;28;20119;-79
2022/07/15 00:09:12;;;;;;;4.80;1.42;;;;;;;18.09;54.05;96511.16;5061164;28;20029;-80
2022/07/15 00:11:38;;;;;;;5.43;1.88;;;;;;;18.12;53.54;96505.44;5054340;28;20783;-79
2022/07/15 00:14:03;;;;;;;5.22;1.33;;;;;;;18.13;53.53;96520.38;5059957;28;20424;-80
2022/07/15 00:16:29;;;;;;;5.28;1.55;;;;;;;18.08;54.32;96512.19;5054030;28;20073;-79
2022/07/15 00:18:55;;;;;;;3.58;1.60;;;;;;;17.88;54.79;96517.41;5041130;28;20044;-79
2022/07/15 00:21:21;;;;;;;4.78;1.65;;;;;;;17.91;55.39;96510.88;5031385;28;20477;-79
2022/07/15 00:23:47;;;;;;;4.20;1.63;;;;;;;17.89;55.44;96512.91;5018329;28;20485;-82
2022/07/15 00:26:13;;;;;;;4.20;1.55;;;;;;;17.87;55.32;96512.28;5040986;28;20044;-79
2022/07/15 00:28:38;;;;;;;7.20;2.03;;;;;;;17.87;55.56;96506.97;5033341;28;20032;-79
2022/07/15 00:31:04;;;;;;;4.85;1.35;;;;;;;17.86;55.66;96503.47;5028062;28;21665;-80
2022/07/15 00:33:29;;;;;;;4.55;1.42;;;;;;;17.83;55.85;96500.41;5028253;28;20108;-79
2022/07/15 00:35:55;;;;;;;5.55;1.60;;;;;;;17.80;56.51;96501.59;5032770;28;20402;-79
2022/07/15 00:38:21;;;;;;;4.80;2.03;;;;;;;17.78;56.63;96498.34;5052613;28;20024;-79
2022/07/15 00:40:48;;;;;;;4.40;1.90;;;;;;;17.81;56.52;96500.59;5037846;28;20562;-79
2022/07/15 00:43:18;;;;;;;5.68;1.80;;;;;;;17.73;56.64;96506.03;5033907;28;20027;-79
2022/07/15 00:45:45;;;;;;;4.38;1.48;;;;;;;17.71;57.52;96502.78;5041631;28;20028;-79
2022/07/15 00:48:11;;;;;;;4.35;1.30;;;;;;;17.69;57.07;96504.81;5048850;28;20101;-79
2022/07/15 00:50:36;;;;;;;2.35;1.30;;;;;;;17.62;58.16;96503.97;5013770;28;20079;-79
2022/07/15 00:53:08;;;;;;;3.97;1.48;;;;;;;17.54;58.40;96502.28;5026213;28;20886;-79
2022/07/15 00:55:41;;;;;;;3.80;1.40;;;;;;;17.55;59.12;96500.44;5052118;28;20080;-79
2022/07/15 00:58:13;;;;;;;5.25;1.40;;;;;;;17.38;58.88;96502.59;5013965;28;20651;-78
2022/07/15 01:00:41;;;;;;;2.92;1.33;;;;;;;17.35;59.35;96505.66;5055141;28;20107;-79
2022/07/15 01:03:07;;;;;;;7.00;2.13;;;;;;;17.22;61.28;96498.41;5058342;28;20112;-80
2022/07/15 01:05:33;;;;;;;3.42;1.38;;;;;;;17.20;61.06;96501.25;5058938;28;20035;-78
2022/07/15 01:07:59;;;;;;;8.25;1.98;;;;;;;17.13;61.97;96505.69;5031038;28;20119;-78
2022/07/15 01:10:25;;;;;;;3.45;1.38;;;;;;;17.04;62.81;96506.88;5014702;28;20048;-78
2022/07/15 01:12:53;;;;;;;5.35;1.60;;;;;;;16.92;64.12;96505.75;5049043;28;20044;-79
2022/07/15 01:15:25;;;;;;;3.63;1.23;;;;;;;16.85;64.16;96507.53;5016951;28;20085;-78
2022/07/15 01:17:51;;;;;;;5.53;1.40;;;;;;;16.65;65.24;96502.81;5039437;28;20556;-79
2022/07/15 01:20:17;;;;;;;4.80;1.55;;;;;;;16.79;64.44;96514.41;5022528;28;20033;-79
2022/07/15 01:22:53;;;;;;;3.72;1.38;;;;;;;16.78;66.28;96517.28;5019791;28;20114;-78
2022/07/15 01:25:20;;;;;;;5.75;1.60;;;;;;;16.74;68.66;96519.47;5030418;28;20025;-83
2022/07/15 01:27:46;;;;;;;3.97;1.40;;;;;;;16.58;68.03;96515.22;5036819;28;20090;-81
2022/07/15 01:30:19;;;;;;;7.22;1.58;;;;;;;16.60;67.25;96515.88;5043159;28;20052;-79
2022/07/15 01:32:46;;;;;;;4.68;1.85;;;;;;;16.55;67.80;96520.91;5034599;28;20422;-79
2022/07/15 01:35:12;;;;;;;5.65;1.70;;;;;;;16.50;66.93;96515.38;5047311;28;20087;-78
2022/07/15 01:37:41;;;;;;;3.35;1.70;;;;;;;16.50;67.02;96516.19;5050961;28;20025;-80
2022/07/15 01:40:07;;;;;;;5.75;1.55;;;;;;;16.36;67.94;96519.69;5035117;28;20056;-79
2022/07/15 01:42:33;;;;;;;4.70;1.97;;;;;;;16.35;69.49;96512.75;5017110;28;20044;-81
2022/07/15 01:45:08;;;;;;;6.97;1.60;;;;;;;16.37;69.64;96516.03;5039083;28;20033;-81
2022/07/15 01:47:46;;;;;;;7.65;2.10;;;;;;;16.27;69.33;96515.53;5028551;28;20807;-79
2022/07/15 01:50:19;;;;;;;3.58;1.17;;;;;;;16.25;69.19;96518.34;5024742;28;20082;-78
2022/07/15 01:52:58;;;;;;;5.90;2.30;;;;;;;16.08;70.87;96521.44;5047625;28;20040;-79
2022/07/15 01:55:27;;;;;;;9.45;4.97;;;;;;;16.09;72.11;96517.75;5020117;28;20508;-78
2022/07/15 01:57:55;;;;;;;4.60;1.77;;;;;;;16.08;73.28;96524.91;5035481;28;20493;-78
2022/07/15 02:00:20;;;;;;;4.20;1.93;;;;;;;16.05;72.51;96521.81;5030066;28;20037;-78
2022/07/15 02:02:55;;;;;;;5.10;1.67;;;;;;;16.04;73.71;96520.97;5032568;28;20040;-79
2022/07/15 02:05:21;;;;;;;4.07;1.50;;;;;;;16.00;73.08;96523.19;5028221;28;20036;-78
2022/07/15 02:07:49;;;;;;;4.77;1.53;;;;;;;15.95;73.21;96522.09;5033636;28;20563;-78
2022/07/15 02:10:18;;;;;;;7.33;1.80;;;;;;;15.86;74.15;96521.38;5017944;28;20509;-78
2022/07/15 02:12:46;;;;;;;6.27;1.77;;;;;;;15.89;73.40;96518.34;5032532;28;20047;-79
2022/07/15 02:15:16;;;;;;;9.17;1.67;;;;;;;15.84;74.61;96520.75;5049125;28;20056;-78
2022/07/15 02:17:47;;;;;;;4.18;1.40;;;;;;;15.79;74.67;96523.97;5020809;28;20463;-78
2022/07/15 02:20:14;;;;;;;4.57;1.40;;;;;;;15.76;76.31;96521.69;5020735;28;20041;-78
2022/07/15 02:22:39;;;;;;;4.87;1.73;;;;;;;15.73;75.54;96519.38;5061809;28;20059;-78
2022/07/15 02:25:06;;;;;;;4.60;1.30;;;;;;;15.65;74.44;96511.47;5035423;28;20025;-78
2022/07/15 02:27:31;;;;;;;3.67;1.30;;;;;;;15.61;74.78;96512.88;5034585;28;20095;-78
2022/07/15 02:29:59;;;;;;;4.73;1.80;;;;;;;15.50;75.89;96511.50;5039592;28;20029;-78
2022/07/15 02:32:31;;;;;;;4.43;1.43;;;;;;;15.58;75.27;96515.88;5032242;28;20033;-78
2022/07/15 02:34:58;;;;;;;5.30;1.40;;;;;;;15.49;76.25;96520.47;5050130;28;20032;-78
2022/07/15 02:37:25;;;;;;;6.47;1.40;;;;;;;15.43;77.85;96510.59;5028336;28;20033;-78
2022/07/15 02:39:51;;;;;;;5.83;1.60;;;;;;;15.37;78.12;96515.81;5052084;28;20017;-79
2022/07/15 02:42:17;;;;;;;5.73;1.50;;;;;;;15.30;78.40;96521.81;5028320;28;20059;-79
2022/07/15 02:44:43;;;;;;;4.73;1.60;;;;;;;15.24;80.06;96513.78;5035246;28;20082;-78
2022/07/15 02:47:10;;;;;;;4.83;1.60;;;;;;;15.22;82.97;96524.53;5025682;28;20036;-78
2022/07/15 02:49:36;;;;;;;5.77;1.73;;;;;;;15.09;81.59;96521.72;5047450;28;20017;-79
2022/07/15 02:52:02;;;;;;;5.40;1.50;;;;;;;15.05;82.16;96523.06;5042879;28;20032;-79
2022/07/15 02:54:32;;;;;;;4.53;1.63;;;;;;;15.05;82.57;96521.22;5017534;28;20044;-78
2022/07/15 02:56:58;;;;;;;7.60;1.93;;;;;;;15.03;85.29;96525.06;5045091;28;20029;-79
2022/07/15 02:59:26;;;;;;;7.43;1.70;;;;;;;14.93;86.41;96527.16;5055097;28;20058;-78
2022/07/15 03:01:55;;;;;;;5.43;1.60;;;;;;;14.89;86.60;96526.69;5040548;28;20048;-82
2022/07/15 03:04:22;;;;;;;3.63;1.53;;;;;;;14.85;87.78;96531.53;5033843;28;20036;-78
2022/07/15 03:06:48;;;;;;;14.50;9.23;;;;;;;14.69;88.90;96541.41;5044129;28;20037;-79
2022/07/15 03:09:14;;;;;;;23.17;16.40;;;;;;;14.73;89.85;96535.59;5026688;28;20069;-80
2022/07/15 03:11:40;;;;;;;12.27;6.73;;;;;;;14.79;90.70;96528.78;5040020;28;20112;-79
2022/07/15 03:14:06;;;;;;;7.30;2.33;;;;;;;14.65;92.77;96537.47;5033773;28;20136;-78
2022/07/15 03:16:33;;;;;;;5.70;2.57;;;;;;;14.57;93.46;96539.19;5032990;28;20040;-81
2022/07/15 03:18:59;;;;;;;5.63;1.73;;;;;;;14.42;95.06;96543.56;5033048;28;20379;-78
2022/07/15 03:21:25;;;;;;;6.57;2.17;;;;;;;14.44;94.33;96541.56;5033366;28;20044;-78
2022/07/15 03:23:51;;;;;;;4.67;1.53;;;;;;;14.32;94.74;96545.63;5065944;28;20405;-82
2022/07/15 03:26:20;;;;;;;5.87;2.30;;;;;;;14.37;93.99;96549.38;5034465;28;20041;-78
2022/07/15 03:28:47;;;;;;;4.70;1.97;;;;;;;14.28;94.80;96545.13;5033323;28;20128;-78
2022/07/15 03:31:13;;;;;;;5.37;2.30;;;;;;;14.42;93.70;96540.94;5027161;28;20116;-78
2022/07/15 03:33:40;;;;;;;5.00;1.80;;;;;;;14.39;92.95;96546.56;5039336;28;20044;-79
2022/07/15 03:36:07;;;;;;;4.70;1.90;;;;;;;14.54;91.75;96547.47;5065010;28;20032;-78
2022/07/15 03:38:33;;;;;;;5.10;2.23;;;;;;;14.54;91.15;96547.47;5017313;28;20032;-78
2022/07/15 03:40:59;;;;;;;4.03;1.73;;;;;;;14.61;90.93;96540.47;5036774;28;20025;-78
2022/07/15 03:43:29;;;;;;;5.53;1.63;;;;;;;14.56;92.14;96545.47;5017474;28;20029;-78
2022/07/15 03:45:59;;;;;;;5.23;2.00;;;;;;;14.55;92.56;96551.78;5032873;28;20036;-78
2022/07/15 03:48:25;;;;;;;6.20;1.93;;;;;;;14.61;92.75;96550.22;5020027;28;20066;-78
2022/07/15 03:50:53;;;;;;;7.97;2.10;;;;;;;14.37;92.37;96546.72;5021813;28;20519;-78
2022/07/15 03:53:19;;;;;;;7.20;2.73;;;;;;;14.23;94.76;96549.31;5017199;28;20021;-78
2022/07/15 03:55:44;;;;;;;6.63;2.30;;;;;;;14.29;94.77;96549.44;5029562;28;20509;-79
2022/07/15 03:58:10;;;;;;;8.07;1.93;;;;;;;14.39;94.17;96551.84;5023010;28;20032;-83
2022/07/15 04:00:36;;;;;;;6.70;2.83;;;;;;;14.38;93.80;96551.03;5020923;28;20029;-79
2022/07/15 04:03:03;;;;;;;8.83;3.33;;;;;;;14.52;94.55;96553.94;5035842;28;20049;-78
2022/07/15 04:05:28;;;;;;;6.73;2.50;;;;;;;14.49;95.33;96554.28;5056489;28;20532;-82
2022/07/15 04:07:56;;;;;;;4.67;1.70;;;;;;;14.39;96.83;96554.50;5044298;28;20043;-79
2022/07/15 04:10:25;;;;;;;4.63;1.73;;;;;;;14.19;97.64;96559.41;5041294;28;20040;-78
2022/07/15 04:12:53;;;;;;;6.77;2.23;;;;;;;14.31;97.46;96552.72;5035962;28;20052;-78
2022/07/15 04:15:24;;;;;;;5.40;2.10;;;;;;;14.32;95.69;96551.72;5048221;28;20036;-78
2022/07/15 04:17:50;;;;;;;3.00;1.63;;;;;;;14.35;96.72;96551.38;5033599;28;20033;-79
2022/07/15 04:20:20;;;;;;;3.63;1.50;;;;;;;14.49;94.60;96556.91;5052504;28;20024;-78
2022/07/15 04:22:51;;;;;;;4.57;1.70;;;;;;;14.60;96.17;96559.19;5041297;28;20025;-79
2022/07/15 04:25:20;;;;;;;6.10;2.37;;;;;;;14.68;96.84;96559.09;5032026;28;20005;-83
2022/07/15 04:27:48;;;;;;;7.23;1.97;;;;;;;14.63;94.34;96558.84;5050531;28;20021;-78
2022/07/15 04:30:15;;;;;;;4.47;1.80;;;;;;;14.64;93.77;96554.34;5033031;28;20021;-76
2022/07/15 04:32:47;;;;;;;4.10;1.65;;;;;;;14.64;94.47;96549.06;5050260;28;20013;-76
2022/07/15 04:35:13;;;;;;;4.70;1.90;;;;;;;14.70;94.09;96559.78;5048806;28;20376;-76
2022/07/15 04:37:39;;;;;;;6.00;1.90;;;;;;;14.72;94.12;96563.06;5028150;28;20067;-80
2022/07/15 04:40:12;;;;;;;5.03;1.80;;;;;;;14.85;95.01;96554.50;5029676;28;20024;-78
2022/07/15 04:42:41;;;;;;;4.17;1.77;;;;;;;14.98;94.88;96561.84;5024720;28;20032;-80
2022/07/15 04:45:10;;;;;;;4.77;1.90;;;;;;;14.87;94.79;96563.09;5015251;28;20120;-77
2022/07/15 04:47:35;;;;;;;5.47;1.80;;;;;;;14.43;97.30;96568.19;5004888;28;20120;-79
2022/07/15 04:52:50;;;;;;;4.90;2.07;;;;;;;14.59;99.12;96558.38;5042950;28;20036;-79
2022/07/15 04:55:16;;;;;;;7.67;1.73;;;;;;;14.63;97.66;96558.84;5026971;28;20044;-79
2022/07/15 04:57:42;;;;;;;5.20;1.93;;;;;;;14.69;96.05;96573.16;5019651;28;20090;-80
2022/07/15 05:00:09;;;;;;;7.27;2.27;;;;;;;14.63;97.38;96569.41;5020683;28;20038;-80
2022/07/15 05:02:38;;;;;;;6.33;2.50;;;;;;;14.73;97.54;96574.47;5049769;28;20037;-81
2022/07/15 05:05:07;;;;;;;4.90;1.77;;;;;;;14.58;97.01;96575.22;5023867;28;20025;-80
2022/07/15 05:07:32;;;;;;;8.77;2.13;;;;;;;14.76;96.22;96563.53;5022601;28;20047;-80
2022/07/15 05:09:58;;;;;;;5.27;2.07;;;;;;;14.85;95.16;96571.25;5035065;28;20029;-78
2022/07/15 05:12:24;;;;;;;5.50;2.10;;;;;;;14.90;95.85;96562.75;5028085;28;20055;-77
2022/07/15 05:14:53;;;;;;;4.77;2.07;;;;;;;15.05;94.08;96563.59;5039948;28;20640;-77
2022/07/15 05:17:20;;;;;;;5.40;2.20;;;;;;;15.21;93.93;96567.94;5030974;28;20683;-76
2022/07/15 05:19:46;;;;;;;7.17;2.40;;;;;;;15.28;93.78;96574.16;5028224;28;20452;-77
2022/07/15 05:22:19;;;;;;;5.97;2.00;;;;;;;15.39;91.69;96574.72;5030876;28;20033;-76
2022/07/15 05:24:45;;;;;;;6.23;2.23;;;;;;;15.57;93.09;96561.97;5019961;28;20028;-79
2022/07/15 05:27:14;;;;;;;7.73;2.20;;;;;;;15.82;92.66;96567.81;5016210;28;20037;-78
2022/07/15 05:29:42;;;;;;;3.43;1.70;;;;;;;16.06;88.14;96563.22;5008787;28;20033;-77
2022/07/15 05:32:08;;;;;;;5.83;2.10;;;;;;;16.09;84.10;96574.28;5035951;28;20090;-78
2022/07/15 05:34:34;;;;;;;7.77;2.77;;;;;;;16.65;81.54;96571.88;5048468;28;20037;-78
2022/07/15 05:37:00;;;;;;;5.03;1.67;;;;;;;16.77;82.78;96574.88;5017167;28;20108;-78
2022/07/15 05:39:26;;;;;;;4.63;1.90;;;;;;;17.13;80.33;96571.31;5029187;28;20108;-78
2022/07/15 05:41:53;;;;;;;5.27;1.93;;;;;;;17.24;79.27;96569.97;5021551;28;20041;-78
2022/07/15 05:44:19;;;;;;;5.20;1.80;;;;;;;16.98;80.24;96579.38;5056110;28;20036;-78
2022/07/15 05:46:48;;;;;;;5.73;1.97;;;;;;;17.21;79.55;96571.19;5021266;28;20032;-78
2022/07/15 05:49:14;;;;;;;8.80;2.50;;;;;;;17.70;77.23;96574.78;5022922;28;20032;-78
2022/07/15 05:51:40;;;;;;;5.72;2.10;;;;;;;17.96;75.77;96572.28;5019982;28;20037;-78
2022/07/15 05:54:06;;;;;;;5.95;1.83;;;;;;;18.41;69.58;96566.53;5038121;28;20056;-78
2022/07/15 05:56:32;;;;;;;6.65;1.90;;;;;;;18.55;68.00;96574.38;5029522;28;20152;-77
2022/07/15 05:58:58;;;;;;;4.90;1.75;;;;;;;18.46;64.81;96580.91;5055681;28;20557;-78
2022/07/15 06:01:29;;;;;;;4.53;1.55;;;;;;;19.06;63.17;96578.38;5028933;28;20029;-78
2022/07/15 06:03:55;;;;;;;4.38;1.58;;;;;;;19.41;61.34;96578.97;5030710;28;20571;-78
2022/07/15 06:06:21;;;;;;;5.22;2.20;;;;;;;18.97;62.75;96582.25;5015291;28;20041;-78
2022/07/15 06:08:48;;;;;;;6.35;2.05;;;;;;;19.18;65.64;96576.75;5026092;28;20059;-79
2022/07/15 06:11:15;;;;;;;7.05;3.50;;;;;;;19.46;62.78;96575.72;5016632;28;20048;-78
2022/07/15 06:13:41;;;;;;;6.50;1.80;;;;;;;19.50;59.91;96575.09;5031580;28;20063;-77
2022/07/15 06:16:07;;;;;;;6.57;2.00;;;;;;;19.67;59.43;96575.50;5023885;28;20021;-78
2022/07/15 06:18:33;;;;;;;6.80;2.08;;;;;;;19.70;58.08;96576.94;5029047;28;20041;-77
2022/07/15 06:21:01;;;;;;;9.82;2.75;;;;;;;19.40;60.48;96581.88;5036620;28;20041;-78
2022/07/15 06:23:27;;;;;;;6.38;2.40;;;;;;;19.84;60.03;96581.22;5018515;28;20483;-78
2022/07/15 06:25:55;;;;;;;4.90;2.00;;;;;;;19.55;58.06;96588.63;5025750;28;20120;-78
2022/07/15 06:28:21;;;;;;;5.68;1.85;;;;;;;20.01;58.37;96582.41;5039782;28;20029;-76
2022/07/15 06:30:48;;;;;;;4.90;1.70;;;;;;;19.60;60.53;96577.34;5042192;28;20020;-78
2022/07/15 06:33:14;;;;;;;13.25;2.35;;;;;;;20.28;58.75;96579.63;5036666;28;20044;-78
2022/07/15 06:35:41;;;;;;;7.22;2.13;;;;;;;20.49;59.20;96587.38;5027874;28;20032;-78
2022/07/15 06:38:08;;;;;;;8.38;2.10;;;;;;;21.28;55.91;96571.03;5044567;28;20078;-78
2022/07/15 06:40:37;;;;;;;5.30;2.22;;;;;;;21.16;56.05;96570.94;5020896;28;20041;-78
2022/07/15 06:43:03;;;;;;;5.88;2.13;;;;;;;21.51;54.81;96571.28;5047855;28;20062;-79
2022/07/15 06:46:08;;;;;;;4.40;2.00;;;;;;;21.70;52.41;96560.63;5044409;28;20128;-78
2022/07/15 06:48:34;;;;;;;5.82;2.25;;;;;;;21.93;52.37;96565.28;5032393;28;20137;-78
2022/07/15 06:50:59;;;;;;;8.38;2.03;;;;;;;22.24;50.71;96570.53;5053765;28;20438;-78
2022/07/15 06:53:25;;;;;;;6.88;2.42;;;;;;;22.30;52.37;96561.63;5058716;28;20035;-78
2022/07/15 06:55:52;;;;;;;8.63;2.20;;;;;;;22.32;51.28;96564.06;5038840;28;20116;-78
2022/07/15 06:58:18;;;;;;;7.93;2.20;;;;;;;21.97;51.25;96561.97;5041253;28;20032;-78
2022/07/15 07:00:43;;;;;;;4.93;2.22;;;;;;;22.56;47.60;96559.63;5056286;28;20111;-77
2022/07/15 07:03:09;;;;;;;5.25;1.73;;;;;;;23.12;47.37;96558.41;5027538;28;20549;-80
2022/07/15 07:05:34;;;;;;;5.80;1.85;;;;;;;22.58;49.45;96568.25;5020450;28;20079;-81
2022/07/15 07:08:02;;;;;;;9.35;1.80;;;;;;;23.33;46.77;96569.66;5038546;28;20036;-80
2022/07/15 07:10:28;;;;;;;6.03;2.22;;;;;;;24.02;41.36;96562.66;5018452;28;20136;-79
2022/07/15 07:12:54;;;;;;;7.70;2.10;;;;;;;24.15;40.25;96565.09;5038297;28;20119;-79
2022/07/15 07:15:23;;;;;;;5.45;1.90;;;;;;;24.84;35.67;96565.09;5048906;28;20047;-78
2022/07/15 07:17:53;;;;;;;4.07;1.75;;;;;;;24.85;36.06;96568.63;5046141;28;20051;-78
2022/07/15 07:20:18;;;;;;;6.55;2.03;;;;;;;24.65;36.23;96572.56;5032349;28;20091;-78
2022/07/15 07:22:44;;;;;;;4.78;2.03;;;;;;;25.37;36.38;96560.38;5062540;28;20141;-78
2022/07/15 07:25:12;;;;;;;5.75;2.33;;;;;;;25.61;35.56;96563.69;5020081;28;20029;-79
2022/07/15 07:27:38;;;;;;;6.28;2.17;;;;;;;25.01;36.14;96562.44;5042861;28;20068;-79
2022/07/15 07:30:04;;;;;;;6.38;1.80;;;;;;;25.89;33.89;96562.81;5039314;28;20017;-78
2022/07/15 07:32:34;;;;;;;5.95;1.60;;;;;;;24.87;36.93;96574.56;5050580;28;20029;-79
2022/07/15 07:35:00;;;;;;;4.43;1.90;;;;;;;25.95;33.71;96559.09;5060492;28;20025;-79
2022/07/15 07:37:26;;;;;;;3.15;1.50;;;;;;;25.94;32.69;96565.56;5058240;28;20032;-80
2022/07/15 07:39:53;;;;;;;8.30;3.20;;;;;;;26.26;32.46;96559.50;5047686;28;20497;-80
2022/07/15 07:42:21;;;;;;;5.68;1.85;;;;;;;26.61;31.68;96563.72;5046352;28;20780;-81
2022/07/15 07:44:46;;;;;;;4.40;1.75;;;;;;;26.93;30.94;96561.91;5043704;28;20040;-80
2022/07/15 07:47:14;;;;;;;4.57;1.45;;;;;;;26.12;32.75;96563.63;5065442;28;20032;-79
2022/07/15 07:49:40;;;;;;;5.90;1.60;;;;;;;25.46;33.78;96566.19;5044933;28;20033;-79
2022/07/15 07:52:06;;;;;;;5.78;1.80;;;;;;;25.39;34.14;96560.97;5041580;28;20059;-80
2022/07/15 07:54:32;;;;;;;8.18;2.03;;;;;;;24.90;34.50;96563.31;5070478;28;20029;-79
2022/07/15 07:56:58;;;;;;;4.80;1.60;;;;;;;25.84;33.26;96557.34;5040662;28;20032;-80
2022/07/15 07:59:24;;;;;;;5.68;1.65;;;;;;;25.07;34.85;96555.28;5057108;28;20487;-79
2022/07/15 08:01:49;;;;;;;5.63;1.85;;;;;;;25.61;34.48;96553.75;5030359;28;20466;-80
2022/07/15 08:04:15;;;;;;;4.00;1.80;;;;;;;26.84;32.06;96546.41;5052644;28;20036;-81
2022/07/15 08:06:41;;;;;;;5.07;1.52;;;;;;;27.73;30.73;96548.50;5021804;28;20048;-80
2022/07/15 08:09:07;;;;;;;10.05;3.90;;;;;;;27.67;31.08;96541.47;5037986;28;20072;-80
2022/07/15 08:11:33;;;;;;;8.98;5.43;;;;;;;26.89;32.33;96539.16;5064274;28;20206;-80
2022/07/15 08:13:59;;;;;;;7.32;2.50;;;;;;;27.23;31.18;96537.09;5062114;28;20040;-78
2022/07/15 08:16:24;;;;;;;4.13;1.98;;;;;;;27.27;30.57;96542.78;5045183;28;20040;-79
2022/07/15 08:18:50;;;;;;;11.05;4.72;;;;;;;27.80;30.17;96543.72;5066786;28;20032;-79
2022/07/15 08:21:16;;;;;;;5.72;1.77;;;;;;;29.11;29.10;96540.97;5054716;28;20037;-79
2022/07/15 08:23:42;;;;;;;4.70;1.75;;;;;;;28.24;29.09;96551.53;5045937;28;20512;-79
2022/07/15 08:26:10;;;;;;;4.65;1.88;;;;;;;27.48;29.83;96539.16;5050354;28;20028;-79
2022/07/15 08:28:36;;;;;;;5.45;1.80;;;;;;;28.01;29.37;96539.25;5063979;28;20036;-79
2022/07/15 08:31:02;;;;;;;5.55;2.25;;;;;;;27.71;29.53;96542.56;5053243;28;20041;-79
2022/07/15 08:33:28;;;;;;;6.72;2.00;;;;;;;27.86;30.74;96539.16;5058823;28;20547;-78
2022/07/15 08:35:58;;;;;;;6.10;1.67;;;;;;;27.32;30.92;96544.69;5055752;28;20478;-79
2022/07/15 08:38:26;;;;;;;6.82;1.92;;;;;;;26.51;31.30;96545.53;5064268;28;20025;-79
2022/07/15 08:40:53;;;;;;;5.10;1.95;;;;;;;27.65;29.93;96543.59;5030212;28;20091;-79
2022/07/15 08:43:22;;;;;;;4.35;1.88;;;;;;;26.54;31.63;96540.44;5026875;28;20142;-79
2022/07/15 08:45:48;;;;;;;4.57;1.75;;;;;;;27.08;29.59;96536.91;5050290;28;20037;-79
2022/07/15 08:48:25;;;;;;;5.70;2.13;;;;;;;28.62;28.14;96542.19;5035297;28;20033;-79
2022/07/15 08:50:56;;;;;;;3.92;1.48;;;;;;;28.82;27.70;96538.72;5044282;28;20046;-79
2022/07/15 08:53:31;;;;;;;4.47;1.50;;;;;;;29.10;27.14;96544.75;5035771;28;20098;-80
2022/07/15 08:55:57;;;;;;;4.80;2.00;;;;;;;29.98;25.88;96530.03;5049295;28;20071;-82
2022/07/15 08:58:26;;;;;;;5.18;1.90;;;;;;;28.82;27.79;96541.44;5040208;28;20068;-79
2022/07/15 09:01:02;;;;;;;4.97;2.00;;;;;;;29.25;27.37;96533.91;5034947;28;20033;-80
2022/07/15 09:03:30;;;;;;;3.45;1.60;;;;;;;29.58;27.99;96523.59;5045478;28;20052;-80
2022/07/15 09:05:56;;;;;;;5.95;1.98;;;;;;;28.72;27.95;96537.91;5024638;28;20029;-80
2022/07/15 09:08:22;;;;;;;5.40;1.70;;;;;;;29.02;26.41;96529.84;5024549;28;20080;-80
2022/07/15 09:10:56;;;;;;;5.80;1.70;;;;;;;29.80;26.66;96529.53;5056534;28;20049;-79
2022/07/15 09:13:24;;;;;;;4.25;1.88;;;;;;;29.86;26.19;96530.34;5060042;28;20458;-79
2022/07/15 09:16:09;;;;;;;3.53;1.63;;;;;;;28.87;27.10;96530.63;5035366;28;20029;-79
2022/07/15 09:18:46;;;;;;;4.55;1.73;;;;;;;28.77;28.53;96535.19;5042684;28;20128;-79
2022/07/15 09:21:19;;;;;;;8.82;1.98;;;;;;;28.90;28.47;96537.38;5012134;28;20033;-80
2022/07/15 09:23:46;;;;;;;3.53;1.92;;;;;;;29.32;27.97;96531.75;5040758;28;20079;-80
2022/07/15 09:26:35;;;;;;;5.72;1.52;;;;;;;29.12;26.14;96535.28;5041070;28;20082;-80
2022/07/15 09:33:34;;;;;;;3.53;1.92;;;;;;;30.25;25.01;96529.72;5025498;28;20069;-80
2022/07/15 09:35:02;;;;;;;3.90;1.70;;;;;;;29.56;26.58;96542.03;5048507;28;20033;-80
2022/07/15 09:37:28;;;;;;;5.15;1.98;;;;;;;30.58;25.97;96540.94;5016983;28;20033;-79
2022/07/15 09:39:56;;;;;;;2.85;1.60;;;;;;;30.41;25.35;96538.56;5053990;28;20036;-80
2022/07/15 09:42:23;;;;;;;3.22;1.50;;;;;;;30.72;25.99;96545.50;5014821;28;20048;-77
2022/07/15 09:44:50;;;;;;;6.25;1.95;;;;;;;30.44;26.72;96548.88;5033473;28;20037;-77
2022/07/15 09:47:18;;;;;;;3.15;1.70;;;;;;;28.93;27.15;96552.28;5046727;28;20095;-79
2022/07/15 09:49:45;;;;;;;6.85;1.60;;;;;;;29.77;26.40;96550.97;5054172;28;20013;-81
2022/07/15 09:52:14;;;;;;;4.97;1.52;;;;;;;29.35;25.68;96550.16;5022929;28;20052;-81
2022/07/15 09:54:51;;;;;;;3.67;1.52;;;;;;;31.23;25.67;96545.16;5038991;28;20063;-81
2022/07/15 09:57:18;;;;;;;4.80;1.60;;;;;;;32.15;24.20;96538.88;5052876;28;20036;-81
2022/07/15 09:59:47;;;;;;;7.70;4.15;;;;;;;31.53;24.79;96537.88;5041428;28;20095;-81
2022/07/15 10:02:15;;;;;;;5.03;2.33;;;;;;;30.22;25.75;96546.53;5020537;28;20037;-80
2022/07/15 10:04:42;;;;;;;4.75;2.78;;;;;;;30.17;26.76;96543.81;5020899;28;20076;-82
2022/07/15 10:07:12;;;;;;;5.45;1.95;;;;;;;30.85;24.52;96544.09;5037363;28;20060;-80
2022/07/15 10:09:41;;;;;;;3.47;1.65;;;;;;;31.26;24.98;96546.50;5025419;28;20067;-80
2022/07/15 10:12:14;;;;;;;8.57;3.80;;;;;;;30.49;25.86;96548.88;5027182;28;20615;-80
2022/07/15 10:15:09;;;;;;;3.88;1.50;;;;;;;32.42;23.15;96536.66;5040859;28;20033;-80
2022/07/15 10:17:58;;;;;;;5.15;1.95;;;;;;;32.50;23.71;96545.03;5036459;28;20049;-80
2022/07/15 10:21:00;;;;;;;3.53;1.58;;;;;;;32.46;23.57;96543.97;5051771;28;20039;-80
2022/07/15 10:23:51;;;;;;;5.75;2.00;;;;;;;32.05;24.41;96535.47;5048287;28;20033;-80
2022/07/15 10:26:55;;;;;;;7.03;1.67;;;;;;;32.07;23.75;96538.72;5040157;28;20440;-80
2022/07/15 10:29:22;;;;;;;4.68;1.60;;;;;;;32.99;23.10;96535.63;5015793;28;20048;-80
2022/07/15 10:31:59;;;;;;;3.78;1.88;;;;;;;31.76;23.84;96540.91;5049959;28;20048;-81
2022/07/15 10:34:38;;;;;;;4.25;1.83;;;;;;;31.92;25.51;96523.34;5040538;28;20044;-80
2022/07/15 10:37:12;;;;;;;4.80;1.90;;;;;;;30.14;25.44;96537.03;5041318;28;20044;-79
2022/07/15 10:39:51;;;;;;;4.03;1.90;;;;;;;30.42;24.99;96532.09;5035799;28;20032;-80
2022/07/15 10:42:18;;;;;;;6.22;2.20;;;;;;;30.15;25.77;96529.69;5053505;28;20037;-77
2022/07/15 10:45:05;;;;;;;2.97;1.63;;;;;;;30.49;24.49;96530.69;5039682;28;20040;-79
2022/07/15 10:47:32;;;;;;;4.75;1.90;;;;;;;30.91;25.85;96525.84;5043472;28;20128;-78
2022/07/15 10:50:00;;;;;;;5.03;2.00;;;;;;;30.99;25.27;96519.81;5027686;28;20083;-79
2022/07/15 10:52:29;;;;;;;4.10;1.90;;;;;;;32.05;23.09;96519.94;5024325;28;20033;-79
2022/07/15 10:54:55;;;;;;;5.32;2.20;;;;;;;32.02;24.71;96509.63;5044490;28;20039;-77
2022/07/15 10:57:44;;;;;;;3.95;1.63;;;;;;;31.43;23.65;96508.88;5026513;28;20040;-78
2022/07/15 11:01:00;;;;;;;;;;;;;;;;;;;;;
2022/07/15 11:04:17;;;;;;;4.75;1.70;;;;;;;31.75;24.84;96504.75;5053048;28;20036;-77
2022/07/15 11:07:03;;;;;;;3.38;1.60;;;;;;;32.70;22.50;96505.00;5026047;28;20045;-78
2022/07/15 11:09:51;;;;;;;4.72;1.73;;;;;;;33.45;23.47;96501.38;5050412;28;20036;-78
2022/07/15 11:12:22;;;;;;;3.60;1.52;;;;;;;33.26;23.16;96502.22;5048876;28;20078;-78
2022/07/15 11:14:53;;;;;;;4.90;1.70;;;;;;;32.59;22.79;96505.13;5038927;28;20033;-78
2022/07/15 11:17:37;;;;;;;3.83;1.70;;;;;;;31.95;24.95;96497.50;5037297;28;20033;-78
2022/07/15 11:20:15;;;;;;;3.28;1.42;;;;;;;31.11;25.23;96493.09;5038896;28;20145;-77
2022/07/15 11:22:44;;;;;;;3.05;1.75;;;;;;;31.75;24.71;96491.16;5037618;28;20072;-78
2022/07/15 11:25:28;;;;;;;3.75;1.85;;;;;;;30.52;25.48;96496.75;5060469;28;20032;-78
2022/07/15 11:28:00;;;;;;;4.22;1.80;;;;;;;30.14;26.14;96490.09;5026998;28;20052;-78
2022/07/15 11:30:36;;;;;;;6.07;2.15;;;;;;;30.73;25.02;96487.38;5039346;28;20474;-78
2022/07/15 11:33:04;;;;;;;4.35;1.70;;;;;;;30.53;24.48;96491.03;5045708;28;20028;-78
2022/07/15 11:35:52;;;;;;;4.60;1.88;;;;;;;30.26;24.14;96486.00;5039505;28;20043;-79
2022/07/15 11:38:23;;;;;;;7.15;3.70;;;;;;;29.16;26.30;96488.69;5032086;28;20490;-79
2022/07/15 11:46:31;;;;;;;4.30;1.98;;;;;;;29.77;26.20;96475.88;5031279;28;20056;-80
2022/07/15 11:48:58;;;;;;;4.55;1.70;;;;;;;30.75;24.27;96474.34;5054923;28;20029;-79
2022/07/15 11:51:31;;;;;;;5.97;2.00;;;;;;;29.08;25.37;96473.81;5038499;28;20033;-81
2022/07/15 11:53:58;;;;;;;4.88;1.60;;;;;;;28.85;25.62;96481.34;5023320;28;20039;-82
2022/07/15 11:56:24;;;;;;;4.35;1.60;;;;;;;29.79;26.92;96462.84;5057821;28;20043;-81